Time;durP1;ratioP1;P1;durP2;ratioP2;P2;SDS_P1;SDS_P2;PMS_P1;PMS_P2;Temp;Humidity;BMP_temperature;BMP_pressure;BME280_temperature;BME280_humidity;BME280_pressure;Samples;Min_cycle;Max_cycle;Signal;HPM_P1;HPM_P2
2022/01/25 00:27:12;;;;;;;30.95;15.25;;;;;;;-5.50;100.00;94296.16;2106613;28;20024;-78
2022/01/25 00:28:27;;;;;;;31.63;14.65;;;;;;;-5.52;100.00;94303.50;2106362;28;20052;-78
2022/01/25 00:29:36;;;;;;;32.58;15.13;;;;;;;-5.52;100.00;94300.91;2093429;28;20032;-79
2022/01/25 00:30:59;;;;;;;31.67;14.98;;;;;;;-5.62;100.00;94302.59;2093066;28;20546;-79
2022/01/25 00:32:06;;;;;;;30.83;15.48;;;;;;;-5.46;100.00;94304.97;2087646;28;20029;-78
2022/01/25 00:33:11;;;;;;;29.25;14.27;;;;;;;-5.48;100.00;94301.88;2091330;28;20454;-79
2022/01/25 00:34:15;;;;;;;28.80;14.93;;;;;;;-5.54;100.00;94303.00;2098611;28;20032;-79
2022/01/25 00:35:20;;;;;;;32.33;14.75;;;;;;;-5.57;100.00;94297.31;2090074;28;20025;-79
2022/01/25 00:36:26;;;;;;;31.95;14.27;;;;;;;-5.55;100.00;94296.25;2090851;28;20029;-79
2022/01/25 00:37:27;;;;;;;28.73;13.88;;;;;;;-5.48;100.00;94294.84;2098392;28;20028;-79
2022/01/25 00:38:28;;;;;;;24.73;13.82;;;;;;;-5.57;100.00;94292.09;2093403;28;20029;-79
2022/01/25 00:39:29;;;;;;;27.42;14.07;;;;;;;-5.60;100.00;94287.47;2098027;28;20383;-78
2022/01/25 00:40:30;;;;;;;25.42;14.35;;;;;;;-5.61;100.00;94300.78;2098156;28;20032;-79
2022/01/25 00:41:31;;;;;;;29.92;14.38;;;;;;;-5.61;100.00;94296.34;2106313;28;20095;-79
2022/01/25 00:42:32;;;;;;;28.83;14.57;;;;;;;-5.69;100.00;94296.97;2098151;28;20031;-78
2022/01/25 00:43:33;;;;;;;30.10;15.05;;;;;;;-5.70;100.00;94298.03;2097947;28;20444;-79
2022/01/25 00:44:49;;;;;;;28.02;14.43;;;;;;;-5.51;100.00;94294.63;2097984;28;20029;-79
2022/01/25 00:45:52;;;;;;;25.10;13.45;;;;;;;-5.58;100.00;94294.97;2106388;28;20024;-78
2022/01/25 00:46:53;;;;;;;27.20;14.85;;;;;;;-5.63;100.00;94290.63;2097814;28;20020;-78
2022/01/25 00:47:55;;;;;;;23.02;13.25;;;;;;;-5.69;100.00;94299.59;2089747;28;20072;-78
2022/01/25 00:49:00;;;;;;;26.90;13.57;;;;;;;-5.64;100.00;94290.91;2089822;28;20679;-78
2022/01/25 00:50:02;;;;;;;25.83;14.70;;;;;;;-5.62;100.00;94294.00;2089669;28;20033;-78
2022/01/25 00:51:35;;;;;;;28.83;14.05;;;;;;;-5.64;100.00;94298.72;2089076;28;20021;-78
2022/01/25 00:53:55;;;;;;;25.42;12.63;;;;;;;-5.63;100.00;94289.84;2098407;28;20028;-78
2022/01/25 00:54:26;;;;;;;30.05;13.27;;;;;;;-5.65;100.00;94290.16;2100684;28;20024;-78
2022/01/25 00:55:27;;;;;;;22.23;12.15;;;;;;;-5.51;100.00;94289.41;2097861;28;20068;-79
2022/01/25 00:56:34;;;;;;;27.90;14.27;;;;;;;-5.66;100.00;94288.59;2094106;28;20035;-79
2022/01/25 00:57:35;;;;;;;23.83;12.52;;;;;;;-5.63;100.00;94287.25;2093798;28;20091;-78
2022/01/25 00:58:36;;;;;;;25.25;13.25;;;;;;;-5.70;100.00;94285.03;2106218;28;20519;-78
2022/01/25 00:59:38;;;;;;;25.08;13.45;;;;;;;-5.58;100.00;94282.72;2097684;28;20481;-78
2022/01/25 01:00:39;;;;;;;24.52;13.38;;;;;;;-5.64;100.00;94278.66;2095688;28;20035;-78
2022/01/25 01:01:41;;;;;;;24.58;13.48;;;;;;;-5.71;100.00;94278.25;2103975;28;20027;-79
2022/01/25 01:02:42;;;;;;;24.70;13.07;;;;;;;-5.72;100.00;94287.13;2097937;28;20036;-78
2022/01/25 01:03:43;;;;;;;26.02;13.48;;;;;;;-5.73;100.00;94284.81;2089532;28;20524;-79
2022/01/25 01:04:44;;;;;;;26.25;13.50;;;;;;;-5.68;100.00;94285.50;2089424;28;20033;-78
2022/01/25 01:05:54;;;;;;;25.33;13.85;;;;;;;-5.69;100.00;94291.78;2089441;28;20036;-78
2022/01/25 01:06:56;;;;;;;21.17;12.10;;;;;;;-5.76;100.00;94286.16;2100293;28;20026;-79
2022/01/25 01:07:57;;;;;;;22.42;12.93;;;;;;;-5.68;100.00;94284.72;2105903;28;20028;-78
2022/01/25 01:08:58;;;;;;;23.30;13.48;;;;;;;-5.60;100.00;94284.84;2089449;28;20052;-79
2022/01/25 01:10:00;;;;;;;24.85;12.82;;;;;;;-5.67;100.00;94289.66;2097572;28;20028;-78
2022/01/25 01:11:05;;;;;;;26.52;13.20;;;;;;;-5.77;100.00;94283.84;2102575;28;20555;-78
2022/01/25 01:12:16;;;;;;;24.77;13.25;;;;;;;-5.74;100.00;94286.66;2084887;28;20691;-78
2022/01/25 01:14:08;;;;;;;25.77;12.75;;;;;;;-5.65;100.00;94282.34;2092377;28;20504;-78
2022/01/25 01:15:03;;;;;;;21.67;11.77;;;;;;;-5.55;100.00;94278.78;2093195;28;20040;-78
2022/01/25 01:30:54;;;;;;;28.05;13.40;;;;;;;-5.76;100.00;94288.75;2105894;28;20526;-79
2022/01/25 01:37:55;;;;;;;28.08;13.07;;;;;;;-5.91;100.00;94281.94;2072553;28;20072;-79
2022/01/25 01:43:33;;;;;;;24.77;12.50;;;;;;;-5.83;100.00;94293.56;2108342;28;20031;-78
2022/01/25 01:45:04;;;;;;;26.77;13.43;;;;;;;-5.73;100.00;94287.41;2114824;27;20023;-78
2022/01/25 01:47:26;;;;;;;25.25;12.32;;;;;;;-5.79;100.00;94286.72;2100640;28;20021;-78
2022/01/25 01:48:30;;;;;;;24.02;12.40;;;;;;;-5.77;100.00;94291.66;2095211;28;20086;-78
2022/01/25 01:49:39;;;;;;;26.52;13.73;;;;;;;-5.70;100.00;94292.06;2089171;28;20501;-78
2022/01/25 01:50:40;;;;;;;28.15;13.40;;;;;;;-5.80;100.00;94294.81;2091577;28;20025;-78
2022/01/25 01:51:44;;;;;;;28.52;14.10;;;;;;;-5.90;100.00;94295.75;2097150;28;20950;-79
2022/01/25 01:52:44;;;;;;;27.42;14.25;;;;;;;-5.91;100.00;94299.41;2097531;28;20120;-78
2022/01/25 01:53:46;;;;;;;27.27;13.82;;;;;;;-5.99;100.00;94292.25;2097196;28;20027;-79
2022/01/25 01:54:47;;;;;;;24.73;12.90;;;;;;;-6.03;100.00;94296.47;2081157;28;20037;-78
2022/01/25 01:55:48;;;;;;;29.25;14.23;;;;;;;-5.89;100.00;94298.03;2094884;28;20020;-78
2022/01/25 01:56:50;;;;;;;24.13;12.60;;;;;;;-5.78;100.00;94295.31;2097415;28;20051;-78
2022/01/25 01:57:53;;;;;;;24.17;12.93;;;;;;;-5.92;100.00;94305.69;2114234;28;20077;-78
2022/01/25 01:58:58;;;;;;;28.90;13.48;;;;;;;-5.83;100.00;94293.56;2105935;28;20024;-78
2022/01/25 01:59:59;;;;;;;23.77;12.80;;;;;;;-5.85;100.00;94300.88;2097708;28;20047;-78
2022/01/25 02:01:01;;;;;;;28.88;13.63;;;;;;;-5.81;100.00;94294.03;2097213;28;20428;-78
2022/01/25 02:02:03;;;;;;;23.85;12.95;;;;;;;-5.70;100.00;94297.28;2097962;28;20036;-79
2022/01/25 02:03:04;;;;;;;29.50;13.85;;;;;;;-5.83;100.00;94294.34;2104610;28;20449;-79
2022/01/25 02:04:08;;;;;;;24.08;12.30;;;;;;;-5.85;100.00;94301.63;2105538;28;20027;-78
2022/01/25 02:05:10;;;;;;;27.02;13.68;;;;;;;-5.84;100.00;94286.78;2097986;28;20024;-79
2022/01/25 02:06:11;;;;;;;27.90;14.57;;;;;;;-5.85;100.00;94298.25;2091154;28;20470;-78
2022/01/25 02:07:12;;;;;;;26.75;13.93;;;;;;;-5.81;100.00;94296.63;2089139;28;20025;-78
2022/01/25 02:08:23;;;;;;;25.63;13.60;;;;;;;-5.77;100.00;94291.66;2089067;28;20025;-78
2022/01/25 02:10:39;;;;;;;;;;;;;;;-5.89;100.00;94295.44;2148462;27;20105;-77
2022/01/25 02:11:40;;;;;;;23.08;11.40;;;;;;;-5.95;100.00;94299.22;2138556;27;19934;-77
2022/01/25 02:12:45;;;;;;;27.88;13.68;;;;;;;-5.77;100.00;94289.03;2138599;27;20026;-79
2022/01/25 02:13:47;;;;;;;27.33;13.00;;;;;;;-5.87;100.00;94297.78;2148129;27;20550;-79
2022/01/25 02:14:48;;;;;;;25.02;13.20;;;;;;;-5.94;100.00;94297.38;2137805;27;20145;-79
2022/01/25 02:15:50;;;;;;;26.67;13.68;;;;;;;-6.02;100.00;94300.63;2121475;27;20027;-79
2022/01/25 02:22:55;;;;;;;27.10;13.30;;;;;;;-6.12;100.00;94289.31;2123901;27;20054;-79
2022/01/25 02:23:56;;;;;;;27.67;14.60;;;;;;;-6.17;100.00;94284.19;2121479;28;20023;-79
2022/01/25 02:24:57;;;;;;;24.45;13.15;;;;;;;-6.19;100.00;94293.31;2112804;28;20028;-79
2022/01/25 02:26:01;;;;;;;25.02;13.25;;;;;;;-6.23;100.00;94293.13;2113274;27;20020;-80
2022/01/25 02:27:03;;;;;;;26.33;13.27;;;;;;;-6.22;100.00;94289.44;2122806;27;20463;-79
2022/01/25 02:28:06;;;;;;;24.20;13.18;;;;;;;-6.20;100.00;94291.75;2130236;27;20116;-79
2022/01/25 02:29:21;;;;;;;24.15;13.70;;;;;;;-6.20;100.00;94292.53;2121847;27;20070;-79
2022/01/25 02:30:25;;;;;;;26.83;13.20;;;;;;;-6.25;100.00;94290.00;2116501;27;20395;-79
2022/01/25 02:31:27;;;;;;;23.67;13.27;;;;;;;-6.24;100.00;94293.38;2122460;27;20122;-79
2022/01/25 02:32:34;;;;;;;24.10;13.00;;;;;;;-6.05;100.00;94286.34;2129359;27;20019;-79
2022/01/25 02:33:38;;;;;;;25.45;12.10;;;;;;;-6.09;100.00;94286.16;2106448;28;20024;-79
2022/01/25 02:34:42;;;;;;;27.45;13.23;;;;;;;-6.20;100.00;94284.72;2112267;28;20065;-79
2022/01/25 02:35:43;;;;;;;23.33;12.38;;;;;;;-6.17;100.00;94291.97;2114196;27;20334;-79
2022/01/25 02:36:46;;;;;;;25.55;13.25;;;;;;;-6.18;100.00;94290.44;2121242;27;20047;-79
2022/01/25 02:37:48;;;;;;;26.23;13.10;;;;;;;-6.24;100.00;94291.53;2121487;27;20076;-79
2022/01/25 02:38:50;;;;;;;25.95;14.05;;;;;;;-6.23;100.00;94285.31;2121589;27;20023;-79
2022/01/25 02:39:53;;;;;;;23.63;13.25;;;;;;;-6.18;100.00;94287.84;2121383;27;20015;-79
2022/01/25 02:40:59;;;;;;;23.85;11.88;;;;;;;-6.15;100.00;94294.28;2121702;27;20028;-79
2022/01/25 02:42:00;;;;;;;26.67;14.10;;;;;;;-6.13;100.00;94292.97;2121839;27;20142;-79
2022/01/25 02:43:05;;;;;;;28.08;12.70;;;;;;;-6.17;100.00;94289.38;2121376;27;20396;-80
2022/01/25 02:44:12;;;;;;;23.95;13.07;;;;;;;-5.87;100.00;94284.78;2113118;28;20084;-80
2022/01/25 02:45:17;;;;;;;23.48;12.52;;;;;;;-5.99;100.00;94298.22;2123205;27;20023;-79
2022/01/25 02:48:29;;;;;;;24.60;12.48;;;;;;;-5.82;100.00;94289.91;2129564;27;20023;-79
2022/01/25 02:49:07;;;;;;;21.48;12.27;;;;;;;-6.00;100.00;94293.31;2123997;27;20519;-78
2022/01/25 02:50:10;;;;;;;22.33;12.48;;;;;;;-6.15;100.00;94299.50;2121742;27;20023;-79
2022/01/25 02:51:11;;;;;;;27.75;12.43;;;;;;;-6.16;100.00;94297.97;2121427;27;20026;-79
2022/01/25 02:52:12;;;;;;;23.13;12.48;;;;;;;-6.14;100.00;94288.81;2121130;27;20689;-79
2022/01/25 02:53:14;;;;;;;24.33;12.80;;;;;;;-6.15;100.00;94291.69;2121349;27;20057;-79
2022/01/25 02:54:21;;;;;;;24.55;12.70;;;;;;;-6.22;100.00;94294.66;2121651;27;20051;-79
2022/01/25 02:55:30;;;;;;;25.00;13.30;;;;;;;-6.20;100.00;94289.16;2113657;28;20027;-79
2022/01/25 02:56:37;;;;;;;22.02;11.45;;;;;;;-6.24;100.00;94285.56;2106711;28;20093;-80
2022/01/25 02:57:40;;;;;;;27.85;13.05;;;;;;;-6.22;100.00;94284.25;2112131;27;20704;-80
2022/01/25 02:58:45;;;;;;;23.83;13.93;;;;;;;-6.15;100.00;94283.88;2113428;27;20047;-80
2022/01/25 02:59:46;;;;;;;24.65;12.80;;;;;;;-6.21;100.00;94296.19;2121591;27;20063;-79
2022/01/25 03:00:49;;;;;;;23.58;12.75;;;;;;;-6.20;100.00;94287.34;2112815;27;20023;-79
2022/01/25 03:01:56;;;;;;;25.02;13.27;;;;;;;-6.22;100.00;94292.06;2129754;27;20120;-79
2022/01/25 03:03:01;;;;;;;23.67;12.02;;;;;;;-6.17;100.00;94288.59;2122172;27;20441;-80
2022/01/25 03:04:07;;;;;;;23.48;12.35;;;;;;;-6.00;100.00;94286.28;2120229;28;20446;-79
2022/01/25 03:05:08;;;;;;;22.67;13.02;;;;;;;-6.10;100.00;94286.44;2097345;28;20115;-79
2022/01/25 03:06:22;;;;;;;23.33;12.15;;;;;;;-6.20;100.00;94279.53;2115285;28;20058;-79
2022/01/25 03:07:23;;;;;;;24.88;12.13;;;;;;;-6.13;100.00;94284.38;2105873;28;20027;-80
2022/01/25 03:08:24;;;;;;;22.70;12.32;;;;;;;-6.13;100.00;94271.38;2104142;28;20103;-79
2022/01/25 03:09:25;;;;;;;23.08;11.73;;;;;;;-6.01;100.00;94273.53;2112693;28;20023;-79
2022/01/25 03:10:37;;;;;;;21.98;11.93;;;;;;;-5.97;100.00;94279.72;2103953;28;20590;-79
2022/01/25 03:11:38;;;;;;;22.83;10.43;;;;;;;-6.01;100.00;94282.13;2098825;28;20028;-79
2022/01/25 03:12:50;;;;;;;23.33;11.95;;;;;;;-6.09;100.00;94273.13;2112510;28;20368;-79
2022/01/25 03:13:55;;;;;;;20.60;11.27;;;;;;;-6.21;100.00;94270.19;2112529;28;20051;-79
2022/01/25 03:15:23;;;;;;;19.20;10.88;;;;;;;-6.23;100.00;94274.09;2113212;28;20027;-79
2022/01/25 03:16:44;;;;;;;17.25;9.63;;;;;;;-6.27;100.00;94263.50;2124349;27;20069;-79
2022/01/25 03:17:58;;;;;;;20.55;9.93;;;;;;;-6.18;100.00;94274.06;2112618;28;20031;-80
2022/01/25 03:19:02;;;;;;;18.60;10.10;;;;;;;-6.20;100.00;94263.91;2099602;28;20047;-79
2022/01/25 03:20:18;;;;;;;21.13;10.82;;;;;;;-6.27;100.00;94262.75;2104729;28;20020;-80
2022/01/25 03:23:44;;;;;;;15.70;9.00;;;;;;;-6.34;100.00;94263.09;2115316;28;20023;-80
2022/01/25 03:24:46;;;;;;;18.40;9.40;;;;;;;-6.15;100.00;94256.03;2107393;28;20377;-79
2022/01/25 03:25:50;;;;;;;19.08;10.57;;;;;;;-6.21;100.00;94259.78;2111017;28;20039;-80
2022/01/25 03:26:52;;;;;;;18.33;10.32;;;;;;;-6.23;100.00;94263.69;2099317;28;20683;-79
2022/01/25 03:27:53;;;;;;;18.92;10.40;;;;;;;-6.37;100.00;94259.19;2098557;28;20070;-80
2022/01/25 03:28:55;;;;;;;19.27;10.52;;;;;;;-6.31;100.00;94265.13;2098587;28;20097;-80
2022/01/25 03:29:56;;;;;;;20.50;10.90;;;;;;;-6.22;100.00;94260.06;2115364;27;20031;-80
2022/01/25 03:30:59;;;;;;;21.13;11.35;;;;;;;-6.26;100.00;94256.47;2124485;27;20031;-80
2022/01/25 03:32:00;;;;;;;18.00;9.68;;;;;;;-6.35;100.00;94264.13;2106563;28;20089;-80
2022/01/25 03:33:01;;;;;;;19.95;11.23;;;;;;;-6.38;100.00;94255.06;2090203;28;20017;-80
2022/01/25 03:34:03;;;;;;;22.80;11.25;;;;;;;-6.40;100.00;94253.81;2098794;28;20020;-81
2022/01/25 03:35:04;;;;;;;19.50;10.63;;;;;;;-6.38;100.00;94260.25;2098428;28;20048;-80
2022/01/25 03:36:07;;;;;;;20.27;11.65;;;;;;;-6.34;100.00;94261.25;2098667;28;20032;-80
2022/01/25 03:37:08;;;;;;;22.25;10.82;;;;;;;-6.22;100.00;94257.47;2106732;28;20020;-80
2022/01/25 03:38:14;;;;;;;20.67;10.68;;;;;;;-6.22;100.00;94260.84;2106750;28;20070;-80
2022/01/25 03:39:17;;;;;;;20.55;10.40;;;;;;;-6.28;100.00;94259.34;2099184;28;20086;-80
2022/01/25 03:40:18;;;;;;;19.38;10.15;;;;;;;-6.30;100.00;94265.91;2107137;28;20150;-80
2022/01/25 03:41:20;;;;;;;18.00;9.90;;;;;;;-6.32;100.00;94261.00;2106884;28;20066;-79
2022/01/25 03:42:24;;;;;;;19.25;10.07;;;;;;;-6.34;100.00;94255.28;2098325;28;20028;-79
2022/01/25 03:43:27;;;;;;;19.98;10.18;;;;;;;-6.39;100.00;94263.16;2091157;28;20123;-80
2022/01/25 03:44:29;;;;;;;18.50;10.20;;;;;;;-6.34;100.00;94263.84;2107342;28;20061;-80
2022/01/25 03:45:33;;;;;;;20.15;10.35;;;;;;;-6.41;100.00;94258.25;2115144;28;20153;-80
2022/01/25 03:47:59;;;;;;;17.15;10.02;;;;;;;-6.38;100.00;94268.06;2107097;28;20131;-80
2022/01/25 03:50:22;;;;;;;19.00;10.10;;;;;;;-6.31;100.00;94264.34;2118024;27;20102;-80
2022/01/25 03:51:23;;;;;;;16.40;9.27;;;;;;;-6.28;100.00;94267.16;2130822;27;20436;-80
2022/01/25 03:52:34;;;;;;;20.98;10.32;;;;;;;-6.38;100.00;94262.88;2123367;27;20020;-80
2022/01/25 03:53:35;;;;;;;22.08;11.30;;;;;;;-6.45;100.00;94264.25;2124937;27;20019;-80
2022/01/25 03:54:36;;;;;;;21.05;10.77;;;;;;;-6.41;100.00;94257.44;2115250;28;20151;-80
2022/01/25 03:55:38;;;;;;;19.65;10.30;;;;;;;-6.34;100.00;94270.88;2115225;27;20050;-80
2022/01/25 03:56:40;;;;;;;16.60;9.88;;;;;;;-6.31;100.00;94269.56;2114947;27;20020;-79
2022/01/25 03:57:41;;;;;;;17.13;9.82;;;;;;;-6.29;100.00;94259.63;2108059;28;20024;-80
2022/01/25 03:58:42;;;;;;;21.58;10.55;;;;;;;-6.28;100.00;94259.34;2097709;28;20020;-80
2022/01/25 03:59:44;;;;;;;23.95;11.25;;;;;;;-6.40;100.00;94259.00;2089983;28;20066;-80
2022/01/25 04:00:45;;;;;;;21.50;10.65;;;;;;;-6.43;100.00;94262.94;2098118;28;20145;-79
2022/01/25 04:01:47;;;;;;;21.38;10.27;;;;;;;-6.50;100.00;94254.69;2111718;27;20469;-80
2022/01/25 04:03:02;;;;;;;20.98;10.75;;;;;;;-6.45;100.00;94264.25;2115174;27;20027;-79
2022/01/25 04:04:12;;;;;;;22.00;11.13;;;;;;;-6.48;100.00;94257.03;2110596;27;20020;-79
2022/01/25 04:05:22;;;;;;;19.65;10.50;;;;;;;-6.52;100.00;94266.44;2101364;28;20047;-80
2022/01/25 04:06:24;;;;;;;18.55;10.68;;;;;;;-6.47;100.00;94255.97;2107853;28;20443;-79
2022/01/25 04:07:42;;;;;;;17.52;9.73;;;;;;;-6.52;100.00;94256.81;2106751;28;20073;-80
2022/01/25 04:08:43;;;;;;;15.98;9.15;;;;;;;-6.25;100.00;94250.97;2109000;28;20084;-79
2022/01/25 04:09:44;;;;;;;20.30;10.75;;;;;;;-6.18;100.00;94261.81;2106231;28;20386;-79
2022/01/25 04:10:47;;;;;;;17.30;9.88;;;;;;;-6.37;100.00;94258.44;2098112;28;20032;-80
2022/01/25 04:11:48;;;;;;;20.20;9.95;;;;;;;-6.00;100.00;94259.50;2106909;27;20027;-79
2022/01/25 04:12:50;;;;;;;20.75;10.45;;;;;;;-6.09;100.00;94256.75;2106304;28;20035;-80
2022/01/25 04:13:54;;;;;;;19.52;10.68;;;;;;;-6.35;100.00;94262.31;2098617;28;20053;-79
2022/01/25 04:14:55;;;;;;;17.88;10.32;;;;;;;-6.15;100.00;94256.03;2115160;28;20027;-79
2022/01/25 04:15:57;;;;;;;22.27;10.48;;;;;;;-6.24;100.00;94260.31;2115012;28;20028;-80
2022/01/25 04:17:03;;;;;;;20.08;9.90;;;;;;;-6.42;100.00;94256.66;2098248;28;20021;-80
2022/01/25 04:20:32;;;;;;;20.88;10.63;;;;;;;-6.47;100.00;94267.16;2123639;27;20545;-80
2022/01/25 04:25:30;;;;;;;16.58;8.93;;;;;;;-6.56;100.00;94258.44;2117944;27;20103;-80
2022/01/25 04:26:33;;;;;;;17.00;10.15;;;;;;;-6.66;100.00;94255.97;2106162;28;20028;-79
2022/01/25 04:27:34;;;;;;;17.70;8.98;;;;;;;-6.60;100.00;94253.00;2096260;28;20035;-79
2022/01/25 04:28:35;;;;;;;22.45;10.77;;;;;;;-6.62;100.00;94256.97;2114990;27;20023;-80
2022/01/25 04:29:37;;;;;;;15.23;9.25;;;;;;;-6.57;100.00;94250.91;2123084;27;20031;-79
2022/01/25 04:30:40;;;;;;;17.77;10.10;;;;;;;-6.59;100.00;94254.53;2114709;28;20027;-79
2022/01/25 04:31:42;;;;;;;19.65;9.80;;;;;;;-6.64;100.00;94256.44;2114812;28;20034;-80
2022/01/25 04:32:58;;;;;;;20.55;9.50;;;;;;;-6.59;100.00;94259.75;2098102;28;20028;-80
2022/01/25 04:34:36;;;;;;;15.68;9.00;;;;;;;-6.31;100.00;94248.75;2118339;27;20051;-80
2022/01/25 04:49:48;;;;;;;15.02;8.00;;;;;;;-6.42;100.00;94248.09;2108701;28;19923;-80
2022/01/25 04:52:04;;;;;;;19.23;9.73;;;;;;;-6.69;100.00;94243.53;2123952;27;20022;-79
2022/01/25 04:54:32;;;;;;;16.70;9.50;;;;;;;-6.71;100.00;94246.41;2124019;27;20094;-80
2022/01/25 04:55:45;;;;;;;;;;;;;;;-6.76;100.00;94243.88;2132323;27;20119;-79
2022/01/25 04:58:15;;;;;;;;;;;;;;;-6.85;100.00;94241.13;2126456;27;20452;-80
2022/01/25 04:59:28;;;;;;;15.82;8.10;;;;;;;-6.74;100.00;94241.00;2123532;27;19912;-80
2022/01/25 05:00:33;;;;;;;19.90;8.95;;;;;;;-6.65;100.00;94236.72;2115975;27;20445;-79
2022/01/25 05:01:35;;;;;;;18.92;9.30;;;;;;;-6.66;100.00;94235.94;2115083;27;20019;-79
2022/01/25 05:04:10;;;;;;;16.30;8.82;;;;;;;-6.69;100.00;94239.09;2123590;27;20023;-80
2022/01/25 05:05:21;;;;;;;18.38;8.77;;;;;;;-6.71;100.00;94241.22;2126597;27;20053;-80
2022/01/25 05:06:23;;;;;;;21.08;9.00;;;;;;;-6.60;100.00;94236.63;2116200;27;20584;-80
2022/01/25 05:09:37;;;;;;;23.25;10.40;;;;;;;-6.55;100.00;94238.41;2131444;27;20440;-79
2022/01/25 05:10:48;;;;;;;18.25;9.25;;;;;;;-6.66;100.00;94238.53;2114352;28;20039;-79
2022/01/25 05:11:50;;;;;;;20.50;10.00;;;;;;;-6.60;100.00;94232.22;2124523;27;20413;-80
2022/01/25 05:13:12;;;;;;;19.73;10.48;;;;;;;-6.70;100.00;94237.56;2123029;27;20015;-79
2022/01/25 05:14:24;;;;;;;17.40;10.95;;;;;;;-6.38;100.00;94239.47;2120461;27;20022;-79
2022/01/25 05:15:38;;;;;;;19.15;11.25;;;;;;;-6.57;100.00;94238.69;2115927;27;20015;-79
2022/01/25 05:16:55;;;;;;;16.75;9.07;;;;;;;-6.63;100.00;94235.38;2118281;27;20019;-79
2022/01/25 05:18:10;;;;;;;18.88;10.00;;;;;;;-6.36;100.00;94241.78;2116518;27;20433;-79
2022/01/25 05:22:56;;;;;;;17.83;9.70;;;;;;;-6.71;100.00;94232.63;2123434;27;20488;-79
2022/01/25 05:24:03;;;;;;;21.23;11.40;;;;;;;-6.81;100.00;94228.31;2105957;28;20484;-80
2022/01/25 05:25:07;;;;;;;21.75;12.65;;;;;;;-6.83;100.00;94234.88;2099263;28;20047;-79
2022/01/25 05:26:11;;;;;;;20.08;10.43;;;;;;;-6.73;100.00;94232.91;2106254;28;20035;-79
2022/01/25 05:27:14;;;;;;;22.75;11.88;;;;;;;-6.63;100.00;94232.00;2106121;28;20081;-80
2022/01/25 05:28:15;;;;;;;19.52;11.77;;;;;;;-6.65;100.00;94234.88;2106028;28;20107;-79
2022/01/25 05:29:16;;;;;;;21.02;10.88;;;;;;;-6.65;100.00;94232.28;2097342;28;20470;-79
2022/01/25 05:30:17;;;;;;;23.42;12.82;;;;;;;-6.65;100.00;94234.88;2097515;28;20056;-79
2022/01/25 05:31:19;;;;;;;23.15;11.77;;;;;;;-6.76;100.00;94237.88;2105506;28;20389;-80
2022/01/25 05:32:20;;;;;;;19.00;11.23;;;;;;;-6.79;100.00;94244.41;2115471;27;20842;-80
2022/01/25 05:33:21;;;;;;;21.77;13.05;;;;;;;-6.81;100.00;94238.72;2108188;28;20142;-80
2022/01/25 05:34:22;;;;;;;21.95;10.85;;;;;;;-6.86;100.00;94238.78;2099834;28;20033;-80
2022/01/25 05:35:23;;;;;;;23.60;11.27;;;;;;;-6.87;100.00;94243.22;2099951;28;20059;-80
2022/01/25 05:36:25;;;;;;;19.58;11.00;;;;;;;-6.88;100.00;94239.06;2116049;27;20365;-80
2022/01/25 05:37:26;;;;;;;28.75;13.88;;;;;;;-6.81;100.00;94243.91;2111504;28;20440;-80
2022/01/25 05:38:27;;;;;;;39.90;18.17;;;;;;;-6.80;100.00;94245.47;2099586;28;20039;-80
2022/01/25 05:39:33;;;;;;;87.88;33.47;;;;;;;-6.60;100.00;94242.59;2105189;28;20353;-80
2022/01/25 05:40:47;;;;;;;104.53;35.85;;;;;;;-6.72;100.00;94247.44;2098414;28;20543;-79
2022/01/25 05:41:57;;;;;;;63.05;27.02;;;;;;;-6.87;100.00;94245.03;2115564;28;20020;-80
2022/01/25 05:45:37;;;;;;;24.48;12.98;;;;;;;-6.74;100.00;94244.34;2113770;28;20111;-80
2022/01/25 05:47:05;;;;;;;26.42;14.90;;;;;;;-6.74;100.00;94253.97;2113890;28;20685;-81
2022/01/25 05:48:06;;;;;;;25.05;14.23;;;;;;;-6.81;100.00;94249.13;2102429;28;20735;-80
2022/01/25 05:49:07;;;;;;;28.63;15.70;;;;;;;-6.91;100.00;94249.25;2113871;27;20027;-79
2022/01/25 05:50:08;;;;;;;25.13;14.63;;;;;;;-6.96;100.00;94262.31;2129552;27;20019;-80
2022/01/25 05:51:13;;;;;;;21.75;13.75;;;;;;;-6.89;100.00;94263.50;2127962;27;20031;-80
2022/01/25 05:52:18;;;;;;;27.55;14.35;;;;;;;-6.87;100.00;94251.00;2111628;28;20088;-80
2022/01/25 05:53:20;;;;;;;24.98;13.00;;;;;;;-6.86;100.00;94254.38;2109749;28;20036;-80
2022/01/25 05:54:21;;;;;;;20.35;11.20;;;;;;;-6.89;100.00;94258.31;2105648;28;20020;-80
2022/01/25 05:55:24;;;;;;;21.10;11.57;;;;;;;-6.73;100.00;94248.50;2086711;28;20451;-80
2022/01/25 05:56:28;;;;;;;21.48;11.45;;;;;;;-6.75;100.00;94247.25;2107147;27;20091;-79
2022/01/25 05:57:29;;;;;;;21.80;11.95;;;;;;;-6.75;100.00;94245.41;2114144;27;20059;-79
2022/01/25 05:58:30;;;;;;;25.73;11.60;;;;;;;-6.87;100.00;94245.81;2096127;28;20036;-79
2022/01/25 05:59:31;;;;;;;20.10;10.85;;;;;;;-6.83;100.00;94245.25;2096230;28;20115;-80
2022/01/25 06:00:32;;;;;;;18.30;10.60;;;;;;;-6.85;100.00;94248.91;2103036;28;20032;-79
2022/01/25 06:01:34;;;;;;;19.98;10.13;;;;;;;-6.92;100.00;94239.91;2102587;28;20024;-79
2022/01/25 06:02:36;;;;;;;20.98;10.52;;;;;;;-6.83;100.00;94250.47;2114973;27;20027;-79
2022/01/25 06:03:40;;;;;;;20.95;10.57;;;;;;;-6.93;100.00;94246.16;2112006;28;20579;-80
2022/01/25 06:04:41;;;;;;;21.10;10.77;;;;;;;-6.87;100.00;94245.81;2097661;28;20040;-80
2022/01/25 06:05:43;;;;;;;19.02;10.77;;;;;;;-6.93;100.00;94239.13;2099842;28;20056;-80
2022/01/25 06:06:44;;;;;;;16.83;9.43;;;;;;;-6.99;100.00;94244.66;2106590;28;20798;-80
2022/01/25 06:07:45;;;;;;;18.88;9.27;;;;;;;-6.97;100.00;94240.75;2108618;28;20038;-79
2022/01/25 06:08:46;;;;;;;17.50;8.80;;;;;;;-6.86;100.00;94231.75;2113031;28;20483;-80
2022/01/25 06:09:48;;;;;;;14.30;8.63;;;;;;;-6.93;100.00;94243.56;2110638;28;20027;-80
2022/01/25 06:10:49;;;;;;;17.48;9.02;;;;;;;-6.92;100.00;94242.50;2107775;28;21652;-80
2022/01/25 06:11:54;;;;;;;15.52;8.45;;;;;;;-6.98;100.00;94247.00;2109361;28;20066;-80
2022/01/25 06:12:55;;;;;;;14.10;8.07;;;;;;;-7.00;100.00;94245.72;2121639;28;20059;-80
2022/01/25 06:13:56;;;;;;;17.33;8.35;;;;;;;-6.91;100.00;94239.63;2113105;27;20839;-79
2022/01/25 06:14:57;;;;;;;16.00;8.57;;;;;;;-6.94;100.00;94240.16;2112839;28;20032;-80
2022/01/25 06:15:58;;;;;;;11.57;7.53;;;;;;;-6.95;100.00;94241.22;2112843;28;20040;-79
2022/01/25 06:16:59;;;;;;;17.02;7.95;;;;;;;-6.93;100.00;94241.72;2121714;28;20019;-79
2022/01/25 06:18:00;;;;;;;18.40;9.77;;;;;;;-6.96;100.00;94242.28;2113114;28;20103;-80
2022/01/25 06:19:02;;;;;;;21.70;13.50;;;;;;;-6.90;100.00;94245.59;2112781;28;20463;-80
2022/01/25 06:20:04;;;;;;;23.13;13.43;;;;;;;-6.96;100.00;94249.31;2104734;28;20473;-80
2022/01/25 06:21:05;;;;;;;25.25;14.85;;;;;;;-6.97;100.00;94245.94;2121540;27;20034;-80
2022/01/25 06:22:06;;;;;;;21.00;12.27;;;;;;;-6.90;100.00;94243.00;2130125;27;20433;-80
2022/01/25 06:23:07;;;;;;;18.60;11.57;;;;;;;-6.90;100.00;94243.00;2107854;28;20113;-79
2022/01/25 06:24:07;;;;;;;18.23;10.90;;;;;;;-6.91;100.00;94242.22;2105593;27;20063;-80
2022/01/25 06:25:10;;;;;;;19.38;10.82;;;;;;;-6.94;100.00;94250.56;2111689;28;20024;-80
2022/01/25 06:26:11;;;;;;;16.63;9.93;;;;;;;-6.93;100.00;94248.75;2099920;28;20024;-80
2022/01/25 06:27:13;;;;;;;19.52;11.40;;;;;;;-6.95;100.00;94253.44;2098414;28;20534;-79
2022/01/25 06:28:16;;;;;;;13.60;8.60;;;;;;;-6.77;100.00;94251.94;2113189;28;20444;-79
2022/01/25 06:29:18;;;;;;;15.18;9.88;;;;;;;-6.88;100.00;94244.28;2105093;28;20066;-79
2022/01/25 06:30:20;;;;;;;15.13;9.32;;;;;;;-6.79;100.00;94246.25;2113577;27;20019;-80
2022/01/25 06:31:22;;;;;;;17.30;9.20;;;;;;;-6.89;100.00;94247.94;2111283;28;20035;-79
2022/01/25 06:32:25;;;;;;;14.80;9.45;;;;;;;-6.87;100.00;94252.84;2108144;28;20106;-79
2022/01/25 06:33:30;;;;;;;14.70;8.60;;;;;;;-6.97;100.00;94258.94;2108197;28;20114;-79
2022/01/25 06:34:31;;;;;;;13.00;8.43;;;;;;;-6.95;100.00;94254.22;2097870;28;20025;-79
2022/01/25 06:35:32;;;;;;;15.70;8.68;;;;;;;-6.98;100.00;94254.78;2104813;28;20024;-79
2022/01/25 06:36:34;;;;;;;16.45;9.57;;;;;;;-6.81;100.00;94246.50;2097168;28;20024;-79